sensor_id;sensor_type;location;lat;lon;timestamp;P1;durP1;ratioP1;P2;durP2;ratioP2
15192;SDS011;7697;51.630;7.484;2023-07-20T00:01:52;3.08;;;2.30;;
15192;SDS011;7697;51.630;7.484;2023-07-20T00:06:55;2.22;;;1.77;;
15192;SDS011;7697;51.630;7.484;2023-07-20T00:11:57;2.05;;;1.77;;
15192;SDS011;7697;51.630;7.484;2023-07-20T00:17:00;2.10;;;1.90;;
15192;SDS011;7697;51.630;7.484;2023-07-20T00:22:03;2.28;;;2.08;;
15192;SDS011;7697;51.630;7.484;2023-07-20T00:27:05;2.40;;;2.20;;
15192;SDS011;7697;51.630;7.484;2023-07-20T00:32:07;2.58;;;2.13;;
15192;SDS011;7697;51.630;7.484;2023-07-20T00:37:10;2.63;;;2.17;;
15192;SDS011;7697;51.630;7.484;2023-07-20T00:42:12;2.60;;;2.40;;
15192;SDS011;7697;51.630;7.484;2023-07-20T00:47:14;2.22;;;2.03;;
15192;SDS011;7697;51.630;7.484;2023-07-20T00:52:17;2.78;;;2.17;;
15192;SDS011;7697;51.630;7.484;2023-07-20T00:57:21;3.47;;;2.30;;
15192;SDS011;7697;51.630;7.484;2023-07-20T01:02:24;2.95;;;2.33;;
15192;SDS011;7697;51.630;7.484;2023-07-20T01:07:29;3.05;;;2.78;;
15192;SDS011;7697;51.630;7.484;2023-07-20T01:12:36;2.70;;;2.25;;
15192;SDS011;7697;51.630;7.484;2023-07-20T01:17:43;2.80;;;2.38;;
15192;SDS011;7697;51.630;7.484;2023-07-20T01:22:50;3.10;;;2.47;;
15192;SDS011;7697;51.630;7.484;2023-07-20T01:28:19;3.00;;;2.13;;
15192;SDS011;7697;51.630;7.484;2023-07-20T01:33:38;3.65;;;2.78;;
15192;SDS011;7697;51.630;7.484;2023-07-20T01:38:41;2.83;;;2.58;;
15192;SDS011;7697;51.630;7.484;2023-07-20T01:43:44;3.92;;;2.70;;
15192;SDS011;7697;51.630;7.484;2023-07-20T01:48:47;2.92;;;2.63;;
15192;SDS011;7697;51.630;7.484;2023-07-20T01:53:49;2.92;;;2.67;;
15192;SDS011;7697;51.630;7.484;2023-07-20T01:58:50;3.15;;;2.70;;
15192;SDS011;7697;51.630;7.484;2023-07-20T02:03:54;2.83;;;2.40;;
15192;SDS011;7697;51.630;7.484;2023-07-20T02:08:55;3.30;;;2.67;;
15192;SDS011;7697;51.630;7.484;2023-07-20T02:13:57;4.78;;;2.92;;
15192;SDS011;7697;51.630;7.484;2023-07-20T02:19:00;3.90;;;2.80;;
15192;SDS011;7697;51.630;7.484;2023-07-20T02:24:02;3.15;;;2.85;;
15192;SDS011;7697;51.630;7.484;2023-07-20T02:29:04;3.17;;;2.88;;
15192;SDS011;7697;51.630;7.484;2023-07-20T02:34:07;3.45;;;2.70;;
15192;SDS011;7697;51.630;7.484;2023-07-20T02:39:09;2.38;;;2.17;;
15192;SDS011;7697;51.630;7.484;2023-07-20T02:44:11;3.33;;;3.03;;
15192;SDS011;7697;51.630;7.484;2023-07-20T02:49:14;3.20;;;2.90;;
15192;SDS011;7697;51.630;7.484;2023-07-20T02:54:16;3.45;;;3.08;;
15192;SDS011;7697;51.630;7.484;2023-07-20T02:59:18;4.50;;;3.15;;
15192;SDS011;7697;51.630;7.484;2023-07-20T03:04:22;4.72;;;3.20;;
15192;SDS011;7697;51.630;7.484;2023-07-20T03:09:25;3.63;;;3.17;;
15192;SDS011;7697;51.630;7.484;2023-07-20T03:14:29;3.38;;;3.08;;
15192;SDS011;7697;51.630;7.484;2023-07-20T03:19:34;5.15;;;3.42;;
15192;SDS011;7697;51.630;7.484;2023-07-20T03:24:37;4.47;;;3.33;;
15192;SDS011;7697;51.630;7.484;2023-07-20T03:29:39;4.68;;;3.90;;
15192;SDS011;7697;51.630;7.484;2023-07-20T03:34:45;4.20;;;3.80;;
15192;SDS011;7697;51.630;7.484;2023-07-20T03:39:47;4.00;;;3.40;;
15192;SDS011;7697;51.630;7.484;2023-07-20T03:44:50;3.95;;;3.47;;
15192;SDS011;7697;51.630;7.484;2023-07-20T03:50:03;3.92;;;3.50;;
15192;SDS011;7697;51.630;7.484;2023-07-20T03:55:39;4.55;;;4.13;;
15192;SDS011;7697;51.630;7.484;2023-07-20T04:01:38;5.07;;;4.13;;
15192;SDS011;7697;51.630;7.484;2023-07-20T04:13:36;4.47;;;3.85;;
15192;SDS011;7697;51.630;7.484;2023-07-20T04:19:05;5.40;;;4.18;;
15192;SDS011;7697;51.630;7.484;2023-07-20T04:30:17;5.22;;;4.72;;
15192;SDS011;7697;51.630;7.484;2023-07-20T05:50:28;3.58;;;3.28;;
15192;SDS011;7697;51.630;7.484;2023-07-20T05:56:05;3.78;;;3.47;;
15192;SDS011;7697;51.630;7.484;2023-07-20T06:07:24;3.67;;;3.38;;
15192;SDS011;7697;51.630;7.484;2023-07-20T06:12:47;3.25;;;2.95;;
15192;SDS011;7697;51.630;7.484;2023-07-20T06:17:59;3.80;;;3.50;;
15192;SDS011;7697;51.630;7.484;2023-07-20T06:57:50;1.50;;;1.40;;
15192;SDS011;7697;51.630;7.484;2023-07-20T07:03:40;1.50;;;1.40;;
15192;SDS011;7697;51.630;7.484;2023-07-20T07:09:12;2.20;;;1.70;;
15192;SDS011;7697;51.630;7.484;2023-07-20T07:26:14;1.55;;;1.20;;
15192;SDS011;7697;51.630;7.484;2023-07-20T07:31:42;1.98;;;1.60;;
15192;SDS011;7697;51.630;7.484;2023-07-20T07:36:49;2.03;;;1.73;;
15192;SDS011;7697;51.630;7.484;2023-07-20T07:42:05;2.63;;;1.80;;
15192;SDS011;7697;51.630;7.484;2023-07-20T07:47:16;2.15;;;1.88;;
15192;SDS011;7697;51.630;7.484;2023-07-20T07:52:19;1.60;;;1.45;;
15192;SDS011;7697;51.630;7.484;2023-07-20T07:57:25;2.22;;;1.35;;
15192;SDS011;7697;51.630;7.484;2023-07-20T08:02:28;1.42;;;1.27;;
15192;SDS011;7697;51.630;7.484;2023-07-20T08:07:31;1.40;;;1.30;;
15192;SDS011;7697;51.630;7.484;2023-07-20T08:12:35;1.23;;;1.10;;
15192;SDS011;7697;51.630;7.484;2023-07-20T08:17:37;1.55;;;1.17;;
15192;SDS011;7697;51.630;7.484;2023-07-20T08:22:39;1.33;;;1.10;;
15192;SDS011;7697;51.630;7.484;2023-07-20T08:27:45;2.70;;;1.40;;
15192;SDS011;7697;51.630;7.484;2023-07-20T08:32:47;1.10;;;1.00;;
15192;SDS011;7697;51.630;7.484;2023-07-20T08:37:50;1.13;;;1.02;;
15192;SDS011;7697;51.630;7.484;2023-07-20T08:42:53;2.05;;;1.05;;
15192;SDS011;7697;51.630;7.484;2023-07-20T08:47:56;2.25;;;1.08;;
15192;SDS011;7697;51.630;7.484;2023-07-20T08:52:59;1.52;;;1.10;;
15192;SDS011;7697;51.630;7.484;2023-07-20T08:58:04;1.00;;;0.90;;
15192;SDS011;7697;51.630;7.484;2023-07-20T09:03:09;0.95;;;0.90;;
15192;SDS011;7697;51.630;7.484;2023-07-20T09:08:13;1.00;;;0.90;;
15192;SDS011;7697;51.630;7.484;2023-07-20T09:13:16;1.30;;;1.15;;
15192;SDS011;7697;51.630;7.484;2023-07-20T09:18:24;0.98;;;0.95;;
15192;SDS011;7697;51.630;7.484;2023-07-20T09:23:31;0.80;;;0.77;;
15192;SDS011;7697;51.630;7.484;2023-07-20T09:28:37;0.85;;;0.85;;
15192;SDS011;7697;51.630;7.484;2023-07-20T09:33:44;1.05;;;0.90;;
15192;SDS011;7697;51.630;7.484;2023-07-20T09:38:46;1.85;;;1.60;;
15192;SDS011;7697;51.630;7.484;2023-07-20T09:43:49;1.15;;;0.95;;
15192;SDS011;7697;51.630;7.484;2023-07-20T09:48:52;0.70;;;0.70;;
15192;SDS011;7697;51.630;7.484;2023-07-20T09:53:56;0.85;;;0.75;;
15192;SDS011;7697;51.630;7.484;2023-07-20T09:59:01;0.57;;;0.57;;
15192;SDS011;7697;51.630;7.484;2023-07-20T10:04:03;1.08;;;0.95;;
15192;SDS011;7697;51.630;7.484;2023-07-20T10:09:10;0.90;;;0.75;;
15192;SDS011;7697;51.630;7.484;2023-07-20T10:14:20;0.80;;;0.80;;
15192;SDS011;7697;51.630;7.484;2023-07-20T10:19:23;0.80;;;0.77;;
15192;SDS011;7697;51.630;7.484;2023-07-20T10:24:29;0.90;;;0.77;;
15192;SDS011;7697;51.630;7.484;2023-07-20T10:29:36;0.68;;;0.65;;
15192;SDS011;7697;51.630;7.484;2023-07-20T10:34:39;0.80;;;0.80;;
15192;SDS011;7697;51.630;7.484;2023-07-20T10:39:45;0.80;;;0.80;;
15192;SDS011;7697;51.630;7.484;2023-07-20T10:44:50;1.20;;;1.05;;
15192;SDS011;7697;51.630;7.484;2023-07-20T10:50:02;1.55;;;1.10;;
15192;SDS011;7697;51.630;7.484;2023-07-20T10:55:14;2.30;;;0.80;;
15192;SDS011;7697;51.630;7.484;2023-07-20T11:00:19;1.00;;;0.90;;
15192;SDS011;7697;51.630;7.484;2023-07-20T11:05:36;1.02;;;0.77;;
15192;SDS011;7697;51.630;7.484;2023-07-20T11:10:40;0.77;;;0.77;;
15192;SDS011;7697;51.630;7.484;2023-07-20T11:15:48;0.85;;;0.85;;
15192;SDS011;7697;51.630;7.484;2023-07-20T11:21:06;0.85;;;0.75;;
15192;SDS011;7697;51.630;7.484;2023-07-20T11:26:13;1.98;;;0.80;;
15192;SDS011;7697;51.630;7.484;2023-07-20T11:31:21;0.63;;;0.63;;
15192;SDS011;7697;51.630;7.484;2023-07-20T11:36:26;1.00;;;0.90;;
15192;SDS011;7697;51.630;7.484;2023-07-20T11:41:33;0.93;;;0.80;;
15192;SDS011;7697;51.630;7.484;2023-07-20T11:46:37;1.27;;;0.80;;
15192;SDS011;7697;51.630;7.484;2023-07-20T11:51:41;1.10;;;1.00;;
15192;SDS011;7697;51.630;7.484;2023-07-20T11:56:45;0.93;;;0.82;;
15192;SDS011;7697;51.630;7.484;2023-07-20T12:01:51;1.00;;;0.90;;
15192;SDS011;7697;51.630;7.484;2023-07-20T12:06:57;0.80;;;0.80;;
15192;SDS011;7697;51.630;7.484;2023-07-20T12:12:08;0.85;;;0.85;;
15192;SDS011;7697;51.630;7.484;2023-07-20T12:17:15;0.80;;;0.80;;
15192;SDS011;7697;51.630;7.484;2023-07-20T12:22:18;0.80;;;0.80;;
15192;SDS011;7697;51.630;7.484;2023-07-20T12:27:22;0.77;;;0.77;;
15192;SDS011;7697;51.630;7.484;2023-07-20T12:32:33;0.82;;;0.82;;
15192;SDS011;7697;51.630;7.484;2023-07-20T12:37:40;0.82;;;0.82;;
15192;SDS011;7697;51.630;7.484;2023-07-20T12:42:46;1.02;;;0.93;;
15192;SDS011;7697;51.630;7.484;2023-07-20T12:47:55;0.70;;;0.70;;
15192;SDS011;7697;51.630;7.484;2023-07-20T12:52:59;1.00;;;0.90;;
15192;SDS011;7697;51.630;7.484;2023-07-20T12:58:05;0.50;;;0.50;;
15192;SDS011;7697;51.630;7.484;2023-07-20T13:03:18;0.70;;;0.70;;
15192;SDS011;7697;51.630;7.484;2023-07-20T13:08:27;0.57;;;0.57;;
15192;SDS011;7697;51.630;7.484;2023-07-20T13:13:35;0.63;;;0.63;;
15192;SDS011;7697;51.630;7.484;2023-07-20T13:18:41;1.02;;;0.70;;
15192;SDS011;7697;51.630;7.484;2023-07-20T13:23:51;0.63;;;0.63;;
15192;SDS011;7697;51.630;7.484;2023-07-20T13:28:57;1.00;;;0.90;;
15192;SDS011;7697;51.630;7.484;2023-07-20T13:34:02;1.40;;;0.90;;
15192;SDS011;7697;51.630;7.484;2023-07-20T13:39:14;0.50;;;0.50;;
15192;SDS011;7697;51.630;7.484;2023-07-20T13:44:19;2.05;;;0.80;;
15192;SDS011;7697;51.630;7.484;2023-07-20T13:49:24;0.68;;;0.68;;
15192;SDS011;7697;51.630;7.484;2023-07-20T13:54:31;0.70;;;0.70;;
15192;SDS011;7697;51.630;7.484;2023-07-20T13:59:36;0.55;;;0.55;;
15192;SDS011;7697;51.630;7.484;2023-07-20T14:04:42;0.57;;;0.57;;
15192;SDS011;7697;51.630;7.484;2023-07-20T14:09:45;0.73;;;0.73;;
15192;SDS011;7697;51.630;7.484;2023-07-20T14:14:49;0.70;;;0.70;;
15192;SDS011;7697;51.630;7.484;2023-07-20T14:19:55;0.77;;;0.77;;
15192;SDS011;7697;51.630;7.484;2023-07-20T14:24:57;1.00;;;0.90;;
15192;SDS011;7697;51.630;7.484;2023-07-20T14:30:00;0.75;;;0.75;;
15192;SDS011;7697;51.630;7.484;2023-07-20T14:35:06;0.98;;;0.80;;
15192;SDS011;7697;51.630;7.484;2023-07-20T14:40:09;0.57;;;0.57;;
15192;SDS011;7697;51.630;7.484;2023-07-20T14:45:16;0.88;;;0.75;;
15192;SDS011;7697;51.630;7.484;2023-07-20T14:50:20;1.13;;;0.70;;
15192;SDS011;7697;51.630;7.484;2023-07-20T14:55:24;0.80;;;0.80;;
15192;SDS011;7697;51.630;7.484;2023-07-20T15:00:27;1.10;;;0.80;;
15192;SDS011;7697;51.630;7.484;2023-07-20T15:05:32;1.15;;;1.05;;
15192;SDS011;7697;51.630;7.484;2023-07-20T15:10:36;0.65;;;0.65;;
15192;SDS011;7697;51.630;7.484;2023-07-20T15:15:39;0.75;;;0.75;;
15192;SDS011;7697;51.630;7.484;2023-07-20T15:20:45;0.70;;;0.70;;
15192;SDS011;7697;51.630;7.484;2023-07-20T15:25:53;0.80;;;0.80;;
15192;SDS011;7697;51.630;7.484;2023-07-20T15:31:00;1.08;;;0.98;;
15192;SDS011;7697;51.630;7.484;2023-07-20T15:36:08;1.00;;;0.90;;
15192;SDS011;7697;51.630;7.484;2023-07-20T15:41:13;1.27;;;0.85;;
15192;SDS011;7697;51.630;7.484;2023-07-20T15:46:40;1.20;;;0.73;;
15192;SDS011;7697;51.630;7.484;2023-07-20T15:51:49;1.00;;;0.90;;
15192;SDS011;7697;51.630;7.484;2023-07-20T15:56:52;0.80;;;0.80;;
15192;SDS011;7697;51.630;7.484;2023-07-20T16:01:55;0.90;;;0.65;;
15192;SDS011;7697;51.630;7.484;2023-07-20T16:06:58;1.27;;;0.90;;
15192;SDS011;7697;51.630;7.484;2023-07-20T16:12:03;1.10;;;0.85;;
15192;SDS011;7697;51.630;7.484;2023-07-20T16:17:06;0.98;;;0.93;;
15192;SDS011;7697;51.630;7.484;2023-07-20T16:22:15;0.82;;;0.80;;
15192;SDS011;7697;51.630;7.484;2023-07-20T16:27:22;0.82;;;0.82;;
15192;SDS011;7697;51.630;7.484;2023-07-20T16:32:37;1.25;;;0.90;;
15192;SDS011;7697;51.630;7.484;2023-07-20T16:37:44;1.15;;;1.05;;
15192;SDS011;7697;51.630;7.484;2023-07-20T16:42:50;1.00;;;0.90;;
15192;SDS011;7697;51.630;7.484;2023-07-20T16:47:52;1.17;;;1.08;;
15192;SDS011;7697;51.630;7.484;2023-07-20T16:52:58;0.82;;;0.75;;
15192;SDS011;7697;51.630;7.484;2023-07-20T16:58:01;1.10;;;1.00;;
15192;SDS011;7697;51.630;7.484;2023-07-20T17:03:03;1.00;;;0.90;;
15192;SDS011;7697;51.630;7.484;2023-07-20T17:08:09;1.00;;;0.90;;
15192;SDS011;7697;51.630;7.484;2023-07-20T17:13:12;0.73;;;0.70;;
15192;SDS011;7697;51.630;7.484;2023-07-20T17:18:16;1.10;;;1.00;;
15192;SDS011;7697;51.630;7.484;2023-07-20T17:23:23;1.20;;;0.90;;
15192;SDS011;7697;51.630;7.484;2023-07-20T17:28:29;1.08;;;0.95;;
15192;SDS011;7697;51.630;7.484;2023-07-20T17:33:33;1.27;;;0.90;;
15192;SDS011;7697;51.630;7.484;2023-07-20T17:38:37;0.80;;;0.80;;
15192;SDS011;7697;51.630;7.484;2023-07-20T17:43:41;1.55;;;1.00;;
15192;SDS011;7697;51.630;7.484;2023-07-20T17:48:44;0.93;;;0.90;;
15192;SDS011;7697;51.630;7.484;2023-07-20T17:53:48;1.40;;;1.20;;
15192;SDS011;7697;51.630;7.484;2023-07-20T17:58:52;0.70;;;0.70;;
15192;SDS011;7697;51.630;7.484;2023-07-20T18:03:54;0.93;;;0.90;;
15192;SDS011;7697;51.630;7.484;2023-07-20T18:08:59;1.02;;;0.93;;
15192;SDS011;7697;51.630;7.484;2023-07-20T18:14:01;0.80;;;0.80;;
15192;SDS011;7697;51.630;7.484;2023-07-20T18:19:04;0.80;;;0.80;;
15192;SDS011;7697;51.630;7.484;2023-07-20T18:24:09;0.80;;;0.77;;
15192;SDS011;7697;51.630;7.484;2023-07-20T18:29:14;1.02;;;0.93;;
15192;SDS011;7697;51.630;7.484;2023-07-20T18:34:16;0.80;;;0.80;;
15192;SDS011;7697;51.630;7.484;2023-07-20T18:39:20;0.82;;;0.82;;
15192;SDS011;7697;51.630;7.484;2023-07-20T18:44:21;0.85;;;0.77;;
15192;SDS011;7697;51.630;7.484;2023-07-20T18:49:23;0.90;;;0.77;;
15192;SDS011;7697;51.630;7.484;2023-07-20T18:54:28;1.05;;;0.73;;
15192;SDS011;7697;51.630;7.484;2023-07-20T18:59:29;0.77;;;0.77;;
15192;SDS011;7697;51.630;7.484;2023-07-20T19:04:31;1.02;;;0.90;;
15192;SDS011;7697;51.630;7.484;2023-07-20T19:09:39;0.90;;;0.85;;
15192;SDS011;7697;51.630;7.484;2023-07-20T19:14:40;1.10;;;0.95;;
15192;SDS011;7697;51.630;7.484;2023-07-20T19:19:42;1.00;;;0.90;;
15192;SDS011;7697;51.630;7.484;2023-07-20T19:24:45;1.17;;;1.08;;
15192;SDS011;7697;51.630;7.484;2023-07-20T19:29:47;1.63;;;1.15;;
15192;SDS011;7697;51.630;7.484;2023-07-20T19:34:49;1.27;;;1.10;;
15192;SDS011;7697;51.630;7.484;2023-07-20T19:39:52;1.33;;;1.00;;
15192;SDS011;7697;51.630;7.484;2023-07-20T19:44:59;1.15;;;1.05;;
15192;SDS011;7697;51.630;7.484;2023-07-20T19:50:03;1.27;;;1.17;;
15192;SDS011;7697;51.630;7.484;2023-07-20T19:55:08;0.80;;;0.80;;
15192;SDS011;7697;51.630;7.484;2023-07-20T20:00:24;0.90;;;0.90;;
15192;SDS011;7697;51.630;7.484;2023-07-20T20:05:31;1.20;;;1.10;;
15192;SDS011;7697;51.630;7.484;2023-07-20T20:10:36;1.15;;;0.98;;
15192;SDS011;7697;51.630;7.484;2023-07-20T20:15:43;1.23;;;1.13;;
15192;SDS011;7697;51.630;7.484;2023-07-20T20:20:48;0.80;;;0.80;;
15192;SDS011;7697;51.630;7.484;2023-07-20T20:25:51;1.20;;;0.95;;
15192;SDS011;7697;51.630;7.484;2023-07-20T20:30:54;0.80;;;0.80;;
15192;SDS011;7697;51.630;7.484;2023-07-20T20:36:01;0.75;;;0.75;;
15192;SDS011;7697;51.630;7.484;2023-07-20T20:41:10;0.95;;;0.93;;
15192;SDS011;7697;51.630;7.484;2023-07-20T20:46:14;1.33;;;1.13;;
15192;SDS011;7697;51.630;7.484;2023-07-20T20:51:20;2.40;;;1.10;;
15192;SDS011;7697;51.630;7.484;2023-07-20T20:56:30;1.50;;;1.10;;
15192;SDS011;7697;51.630;7.484;2023-07-20T21:01:37;1.15;;;1.05;;
15192;SDS011;7697;51.630;7.484;2023-07-20T21:06:42;2.55;;;1.00;;
15192;SDS011;7697;51.630;7.484;2023-07-20T21:11:47;1.05;;;0.95;;
15192;SDS011;7697;51.630;7.484;2023-07-20T21:16:52;1.10;;;1.00;;
15192;SDS011;7697;51.630;7.484;2023-07-20T21:21:54;1.60;;;1.20;;
15192;SDS011;7697;51.630;7.484;2023-07-20T21:26:57;1.27;;;1.10;;
15192;SDS011;7697;51.630;7.484;2023-07-20T21:31:58;0.93;;;0.93;;
15192;SDS011;7697;51.630;7.484;2023-07-20T21:37:01;1.20;;;1.10;;
15192;SDS011;7697;51.630;7.484;2023-07-20T21:42:05;1.15;;;1.05;;
15192;SDS011;7697;51.630;7.484;2023-07-20T21:47:07;1.48;;;1.17;;
15192;SDS011;7697;51.630;7.484;2023-07-20T21:52:09;1.35;;;1.23;;
15192;SDS011;7697;51.630;7.484;2023-07-20T21:57:12;2.22;;;1.10;;
15192;SDS011;7697;51.630;7.484;2023-07-20T22:02:14;1.30;;;1.20;;
15192;SDS011;7697;51.630;7.484;2023-07-20T22:07:16;1.20;;;1.10;;
15192;SDS011;7697;51.630;7.484;2023-07-20T22:12:21;1.65;;;1.25;;
15192;SDS011;7697;51.630;7.484;2023-07-20T22:17:23;2.72;;;1.85;;
15192;SDS011;7697;51.630;7.484;2023-07-20T22:22:25;4.63;;;1.73;;
15192;SDS011;7697;51.630;7.484;2023-07-20T22:27:28;2.85;;;1.70;;
15192;SDS011;7697;51.630;7.484;2023-07-20T22:32:29;1.70;;;1.60;;
15192;SDS011;7697;51.630;7.484;2023-07-20T22:37:31;1.63;;;1.33;;
15192;SDS011;7697;51.630;7.484;2023-07-20T22:42:34;3.05;;;1.40;;
15192;SDS011;7697;51.630;7.484;2023-07-20T22:47:37;1.60;;;1.50;;
15192;SDS011;7697;51.630;7.484;2023-07-20T22:52:41;1.60;;;1.50;;
15192;SDS011;7697;51.630;7.484;2023-07-20T22:57:45;1.42;;;1.33;;
15192;SDS011;7697;51.630;7.484;2023-07-20T23:02:47;3.92;;;1.60;;
15192;SDS011;7697;51.630;7.484;2023-07-20T23:07:49;1.63;;;1.52;;
15192;SDS011;7697;51.630;7.484;2023-07-20T23:12:53;3.20;;;1.63;;
15192;SDS011;7697;51.630;7.484;2023-07-20T23:17:55;1.88;;;1.67;;
15192;SDS011;7697;51.630;7.484;2023-07-20T23:22:57;1.80;;;1.70;;
15192;SDS011;7697;51.630;7.484;2023-07-20T23:28:00;2.15;;;1.85;;
15192;SDS011;7697;51.630;7.484;2023-07-20T23:33:01;1.70;;;1.60;;
15192;SDS011;7697;51.630;7.484;2023-07-20T23:38:04;1.60;;;1.50;;
15192;SDS011;7697;51.630;7.484;2023-07-20T23:43:08;1.60;;;1.50;;
15192;SDS011;7697;51.630;7.484;2023-07-20T23:48:10;2.25;;;1.80;;
15192;SDS011;7697;51.630;7.484;2023-07-20T23:53:12;2.30;;;1.70;;
15192;SDS011;7697;51.630;7.484;2023-07-20T23:58:15;2.45;;;2.10;;
